createdAt,value
2023-04-02T00:00:23.959Z,84.13
2023-04-02T00:05:51.250Z,84.41
2023-04-02T00:10:56.722Z,84.48
2023-04-02T00:16:00.450Z,84.50
2023-04-02T00:21:13.474Z,84.58
2023-04-02T00:26:30.978Z,84.66
2023-04-02T00:31:35.010Z,84.72
2023-04-02T00:36:39.432Z,84.53
2023-04-02T00:41:46.615Z,84.36
2023-04-02T00:46:50.592Z,84.11
2023-04-02T00:51:59.110Z,83.13
2023-04-02T00:57:02.827Z,82.76
2023-04-02T01:02:22.437Z,83.03
2023-04-02T01:07:41.923Z,82.29
2023-04-02T01:12:56.654Z,81.88
2023-04-02T01:18:18.107Z,81.77
2023-04-02T01:23:29.549Z,81.74
2023-04-02T01:28:47.250Z,81.47
2023-04-02T01:33:50.144Z,81.47
2023-04-02T01:39:02.178Z,81.37
2023-04-02T01:44:09.411Z,81.34
2023-04-02T01:49:15.969Z,81.21
2023-04-02T01:54:19.189Z,81.26
2023-04-02T01:59:26.340Z,81.10
2023-04-02T02:04:35.550Z,81.06
2023-04-02T02:09:38.611Z,81.29
2023-04-02T02:14:47.596Z,80.84
2023-04-02T02:19:55.674Z,80.46
2023-04-02T02:25:00.378Z,80.13
2023-04-02T02:30:12.273Z,80.00
2023-04-02T02:35:21.963Z,79.26
2023-04-02T02:40:30.918Z,78.94
2023-04-02T02:45:39.713Z,78.71
2023-04-02T02:50:42.922Z,78.80
2023-04-02T02:55:48.871Z,78.40
2023-04-02T03:00:57.254Z,78.16
2023-04-02T03:06:05.319Z,78.28
2023-04-02T03:11:15.299Z,78.01
2023-04-02T03:16:26.975Z,77.59
2023-04-02T03:21:35.982Z,77.79
2023-04-02T03:26:43.326Z,77.53
2023-04-02T03:31:54.692Z,77.59
2023-04-02T03:37:00.626Z,77.29
2023-04-02T03:42:10.022Z,77.28
2023-04-02T03:47:20.769Z,76.95
2023-04-02T03:52:27.158Z,76.56
2023-04-02T03:57:37.485Z,76.83
2023-04-02T04:02:47.063Z,76.82
2023-04-02T04:07:54.035Z,76.96
2023-04-02T04:13:04.875Z,77.05
2023-04-02T04:18:19.828Z,77.02
2023-04-02T04:23:30.198Z,77.00
2023-04-02T04:28:43.616Z,76.56
2023-04-02T04:33:54.776Z,77.02
2023-04-02T04:39:05.864Z,76.75
2023-04-02T04:44:18.232Z,76.64
2023-04-02T04:49:29.263Z,75.94
2023-04-02T04:54:32.256Z,76.21
2023-04-02T04:59:43.489Z,76.36
2023-04-02T05:04:52.522Z,76.31
2023-04-02T05:10:01.642Z,75.89
2023-04-02T05:15:17.266Z,75.80
2023-04-02T05:20:26.918Z,75.11
2023-04-02T05:25:34.151Z,75.26
2023-04-02T05:30:52.470Z,74.85
2023-04-02T05:36:02.231Z,74.24
2023-04-02T05:41:15.891Z,73.49
2023-04-02T05:46:23.466Z,73.69
2023-04-02T05:51:37.216Z,72.84
2023-04-02T05:56:44.561Z,73.02
2023-04-02T06:01:52.636Z,73.72
2023-04-02T06:07:08.100Z,72.42
2023-04-02T06:12:27.980Z,72.47
2023-04-02T06:17:43.339Z,71.83
2023-04-02T06:22:52.375Z,71.85
2023-04-02T06:27:59.300Z,71.50
2023-04-02T06:33:02.228Z,70.74
2023-04-02T06:38:16.950Z,71.73
2023-04-02T06:43:27.388Z,70.19
2023-04-02T06:48:42.807Z,68.91
2023-04-02T06:53:49.287Z,68.42
2023-04-02T06:58:54.724Z,68.92
2023-04-02T07:03:59.123Z,69.09
2023-04-02T07:09:09.553Z,69.22
2023-04-02T07:14:16.514Z,68.73
2023-04-02T07:19:22.257Z,68.56
2023-04-02T07:24:30.852Z,67.13
2023-04-02T07:29:33.572Z,67.58
2023-04-02T07:34:36.494Z,67.22
2023-04-02T07:39:41.431Z,66.21
2023-04-02T07:44:44.215Z,65.58
2023-04-02T07:49:47.010Z,66.80
2023-04-02T07:54:51.468Z,64.89
2023-04-02T07:59:56.503Z,63.74
2023-04-02T08:04:59.291Z,65.36
2023-04-02T08:10:03.658Z,63.91
2023-04-02T08:15:08.046Z,63.65
2023-04-02T08:20:16.109Z,62.89
2023-04-02T08:25:20.267Z,63.25
2023-04-02T08:30:23.276Z,63.14
2023-04-02T08:35:26.484Z,62.22
2023-04-02T08:40:35.048Z,62.05
2023-04-02T08:45:48.587Z,62.07
2023-04-02T08:50:51.873Z,59.32
2023-04-02T08:56:05.283Z,58.45
2023-04-02T09:01:12.367Z,58.07
2023-04-02T09:06:19.372Z,57.21
2023-04-02T09:11:27.238Z,57.02
2023-04-02T09:16:43.534Z,55.73
2023-04-02T09:21:56.954Z,55.95
2023-04-02T09:27:01.219Z,54.67
2023-04-02T09:32:18.773Z,55.34
2023-04-02T09:37:25.339Z,55.35
2023-04-02T09:42:35.082Z,54.51
2023-04-02T09:47:40.272Z,53.25
2023-04-02T09:52:44.889Z,53.14
2023-04-02T09:57:51.962Z,53.09
2023-04-02T10:03:06.815Z,53.03
2023-04-02T10:08:18.794Z,51.93
2023-04-02T10:13:27.763Z,51.41
2023-04-02T10:18:40.408Z,50.93
2023-04-02T10:23:43.101Z,50.72
2023-04-02T10:29:01.084Z,50.85
2023-04-02T10:34:11.320Z,51.30
2023-04-02T10:39:19.822Z,50.99
2023-04-02T10:44:36.774Z,49.97
2023-04-02T10:49:44.052Z,49.68
2023-04-02T10:54:49.656Z,50.80
2023-04-02T10:59:57.568Z,50.56
2023-04-02T11:05:04.637Z,50.42
2023-04-02T11:10:08.956Z,49.56
2023-04-02T11:15:19.129Z,48.03
2023-04-02T11:20:45.001Z,49.07
2023-04-02T11:25:48.230Z,49.01
2023-04-02T11:30:52.646Z,48.47
2023-04-02T11:35:55.532Z,43.69
2023-04-02T11:40:59.547Z,44.56
2023-04-02T11:46:05.702Z,46.42
2023-04-02T11:51:36.622Z,46.68
2023-04-02T11:56:48.243Z,46.75
2023-04-02T12:02:10.286Z,47.11
2023-04-02T12:07:35.026Z,46.36
2023-04-02T12:12:39.835Z,43.95
2023-04-02T12:17:44.902Z,41.94
2023-04-02T12:22:51.692Z,44.47
2023-04-02T12:28:05.733Z,45.61
2023-04-02T12:33:30.500Z,41.80
2023-04-02T12:38:36.727Z,42.86
2023-04-02T12:43:40.088Z,44.47
2023-04-02T12:48:44.400Z,46.00
2023-04-02T12:53:51.449Z,42.37
2023-04-02T12:58:56.554Z,41.34
2023-04-02T13:04:06.098Z,40.49
2023-04-02T13:09:29.054Z,40.43
2023-04-02T13:14:32.450Z,39.93
2023-04-02T13:19:36.708Z,41.09
2023-04-02T13:24:41.282Z,40.54
2023-04-02T13:29:44.115Z,40.17
2023-04-02T13:34:48.242Z,39.33
2023-04-02T13:39:51.034Z,38.91
2023-04-02T13:44:53.943Z,36.68
2023-04-02T13:49:58.136Z,36.59
2023-04-02T13:55:01.294Z,35.81
2023-04-02T14:00:05.366Z,35.84
2023-04-02T14:05:18.990Z,36.06
2023-04-02T14:10:33.100Z,36.25
2023-04-02T14:15:49.006Z,36.52
2023-04-02T14:21:06.448Z,35.49
2023-04-02T14:26:16.881Z,36.16
2023-04-02T14:31:28.843Z,35.72
2023-04-02T14:36:45.790Z,36.26
2023-04-02T14:41:53.372Z,36.60
2023-04-02T14:47:03.178Z,38.25
2023-04-02T14:52:12.948Z,35.71
2023-04-02T14:57:21.532Z,35.23
2023-04-02T15:02:36.095Z,35.79
2023-04-02T15:07:46.127Z,36.06
2023-04-02T15:12:50.023Z,35.52
2023-04-02T15:17:52.892Z,38.24
2023-04-02T15:23:09.391Z,38.90
2023-04-02T15:28:26.483Z,37.58
2023-04-02T15:33:42.349Z,35.61
2023-04-02T15:38:51.302Z,35.48
2023-04-02T15:44:02.793Z,34.99
2023-04-02T15:49:13.999Z,35.03
2023-04-02T15:54:34.241Z,37.13
2023-04-02T16:00:05.117Z,38.85
2023-04-02T16:05:21.833Z,39.73
2023-04-02T16:10:40.908Z,40.77
2023-04-02T16:15:50.628Z,41.77
2023-04-02T16:20:57.109Z,42.18
2023-04-02T16:26:10.575Z,42.17
2023-04-02T16:31:20.824Z,42.44
2023-04-02T16:36:36.622Z,42.32
2023-04-02T16:41:53.722Z,42.85
2023-04-02T16:47:05.561Z,43.11
2023-04-02T16:52:30.755Z,40.98
2023-04-02T16:57:42.528Z,39.91
2023-04-02T17:03:02.797Z,41.00
2023-04-02T17:08:23.861Z,42.63
2023-04-02T17:13:39.601Z,43.06
2023-04-02T17:18:44.818Z,43.54
2023-04-02T17:23:56.383Z,44.00
2023-04-02T17:29:06.983Z,44.18
2023-04-02T17:34:14.575Z,45.00
2023-04-02T17:39:22.951Z,44.98
2023-04-02T17:44:45.761Z,44.99
2023-04-02T17:49:54.299Z,45.14
2023-04-02T17:55:06.358Z,45.61
2023-04-02T18:00:36.296Z,45.79
2023-04-02T18:05:45.689Z,45.95
2023-04-02T18:10:59.271Z,46.71
2023-04-02T18:16:14.906Z,46.60
2023-04-02T18:21:25.993Z,46.69
2023-04-02T18:26:39.219Z,47.37
2023-04-02T18:31:51.587Z,47.32
2023-04-02T18:37:06.069Z,47.60
2023-04-02T18:42:20.905Z,47.53
2023-04-02T18:47:31.208Z,48.03
2023-04-02T18:52:35.271Z,48.34
2023-04-02T18:57:42.396Z,48.29
2023-04-02T19:02:50.209Z,48.32
2023-04-02T19:08:00.191Z,48.63
2023-04-02T19:13:02.982Z,48.55
2023-04-02T19:18:17.666Z,48.89
2023-04-02T19:23:38.365Z,48.81
2023-04-02T19:28:49.314Z,49.11
2023-04-02T19:34:00.497Z,48.94
2023-04-02T19:39:23.735Z,49.11
2023-04-02T19:44:26.554Z,49.00
2023-04-02T19:49:33.677Z,48.84
2023-04-02T19:54:38.289Z,49.31
2023-04-02T19:59:41.328Z,49.22
2023-04-02T20:04:45.450Z,49.19
2023-04-02T20:09:48.202Z,49.71
2023-04-02T20:14:51.111Z,50.10
2023-04-02T20:19:55.653Z,50.18
2023-04-02T20:24:58.403Z,50.42
2023-04-02T20:30:01.122Z,50.86
2023-04-02T20:35:06.028Z,50.92
2023-04-02T20:40:10.065Z,51.44
2023-04-02T20:45:12.932Z,51.50
2023-04-02T20:50:17.604Z,51.65
2023-04-02T20:55:20.451Z,51.89
2023-04-02T21:00:23.348Z,52.06
2023-04-02T21:05:27.742Z,52.24
2023-04-02T21:10:30.672Z,52.26
2023-04-02T21:15:34.195Z,52.48
2023-04-02T21:20:38.564Z,52.59
2023-04-02T21:25:41.270Z,52.72
2023-04-02T21:30:44.001Z,53.03
2023-04-02T21:35:48.887Z,52.95
2023-04-02T21:40:51.621Z,52.83
2023-04-02T21:45:59.428Z,53.11
2023-04-02T21:51:08.257Z,53.24
2023-04-02T21:56:14.194Z,53.48
2023-04-02T22:01:26.498Z,53.75
2023-04-02T22:06:33.898Z,54.05
2023-04-02T22:11:38.599Z,54.22
2023-04-02T22:16:41.767Z,54.72
2023-04-02T22:21:46.428Z,54.75
2023-04-02T22:26:50.047Z,54.47
2023-04-02T22:31:52.823Z,54.44
2023-04-02T22:36:57.147Z,54.60
2023-04-02T22:41:59.871Z,54.68
2023-04-02T22:47:02.716Z,54.87
2023-04-02T22:52:08.933Z,55.10
2023-04-02T22:57:11.674Z,55.53
2023-04-02T23:02:14.472Z,55.58
2023-04-02T23:07:18.832Z,55.79
2023-04-02T23:12:21.907Z,55.68
2023-04-02T23:17:25.087Z,55.87
2023-04-02T23:22:29.290Z,55.67
2023-04-02T23:27:32.431Z,55.54
2023-04-02T23:32:35.507Z,55.74
2023-04-02T23:37:39.672Z,56.02
2023-04-02T23:42:42.416Z,56.12
2023-04-02T23:47:45.449Z,56.37
2023-04-02T23:52:49.621Z,56.73
2023-04-02T23:57:52.397Z,56.74
